createdAt,value
2023-01-31T00:00:00.636Z,0.00
2023-01-31T00:01:00.618Z,0.00
2023-01-31T00:02:00.664Z,0.00
2023-01-31T00:03:00.621Z,0.00
2023-01-31T00:04:00.628Z,0.00
2023-01-31T00:05:00.583Z,0.00
2023-01-31T00:06:00.558Z,0.00
2023-01-31T00:07:00.585Z,0.00
2023-01-31T00:08:00.560Z,0.00
2023-01-31T00:09:00.538Z,0.00
2023-01-31T00:10:00.537Z,0.00
2023-01-31T00:11:00.517Z,0.00
2023-01-31T00:12:00.509Z,0.00
2023-01-31T00:13:00.519Z,0.00
2023-01-31T00:14:00.520Z,0.00
2023-01-31T00:15:00.456Z,0.00
2023-01-31T00:16:00.500Z,0.00
2023-01-31T00:17:00.455Z,0.00
2023-01-31T00:18:00.429Z,0.00
2023-01-31T00:19:00.428Z,0.00
2023-01-31T00:20:00.479Z,0.00
2023-01-31T00:21:00.416Z,0.00
2023-01-31T00:22:00.405Z,0.00
2023-01-31T00:23:00.381Z,0.00
2023-01-31T00:24:00.413Z,0.00
2023-01-31T00:25:00.369Z,0.00
2023-01-31T00:26:00.342Z,0.00
2023-01-31T00:27:00.344Z,0.00
2023-01-31T00:28:00.374Z,0.00
2023-01-31T00:29:00.339Z,0.00
2023-01-31T00:30:00.324Z,0.00
2023-01-31T00:31:00.362Z,0.00
2023-01-31T00:32:00.556Z,0.00
2023-01-31T00:33:00.325Z,0.00
2023-01-31T00:34:00.292Z,0.00
2023-01-31T00:35:00.241Z,0.00
2023-01-31T00:36:00.263Z,0.00
2023-01-31T00:37:00.240Z,0.00
2023-01-31T00:38:00.239Z,0.00
2023-01-31T00:39:00.207Z,0.00
2023-01-31T00:40:00.213Z,0.00
2023-01-31T00:41:00.198Z,0.00
2023-01-31T00:42:00.180Z,0.00
2023-01-31T00:43:00.158Z,0.00
2023-01-31T00:44:07.164Z,0.00
2023-01-31T00:45:00.168Z,0.00
2023-01-31T00:46:00.152Z,0.00
2023-01-31T00:47:00.192Z,0.00
2023-01-31T00:48:00.126Z,0.00
2023-01-31T00:49:00.131Z,0.00
2023-01-31T00:50:00.107Z,0.00
2023-01-31T00:51:00.089Z,0.00
2023-01-31T00:52:00.130Z,0.00
2023-01-31T00:53:00.081Z,0.00
2023-01-31T00:54:00.049Z,0.00
2023-01-31T00:55:00.032Z,0.00
2023-01-31T00:56:00.035Z,0.00
2023-01-31T00:57:00.041Z,0.00
2023-01-31T00:58:00.036Z,0.00
2023-01-31T00:58:59.993Z,0.00
2023-01-31T00:59:59.979Z,0.00
2023-01-31T01:00:59.994Z,0.00
2023-01-31T01:02:00.057Z,0.00
2023-01-31T01:02:59.957Z,0.00
2023-01-31T01:03:59.956Z,0.00
2023-01-31T01:05:00.512Z,0.00
2023-01-31T01:05:59.925Z,0.00
2023-01-31T01:06:59.899Z,0.00
2023-01-31T01:07:59.919Z,0.00
2023-01-31T01:08:59.974Z,0.00
2023-01-31T01:09:59.884Z,0.00
2023-01-31T01:10:59.854Z,0.00
2023-01-31T01:11:59.851Z,0.00
2023-01-31T01:12:59.844Z,0.00
2023-01-31T01:13:59.836Z,0.00
2023-01-31T01:14:59.823Z,0.00
2023-01-31T01:15:59.863Z,0.00
2023-01-31T01:16:59.799Z,0.00
2023-01-31T01:17:59.793Z,0.00
2023-01-31T01:18:59.781Z,0.00
2023-01-31T01:19:59.774Z,0.00
2023-01-31T01:20:59.751Z,0.00
2023-01-31T01:21:59.758Z,0.00
2023-01-31T01:22:59.725Z,0.00
2023-01-31T01:23:59.738Z,0.00
2023-01-31T01:24:59.742Z,0.00
2023-01-31T01:25:59.712Z,0.00
2023-01-31T01:26:59.690Z,0.00
2023-01-31T01:27:59.678Z,0.00
2023-01-31T01:28:59.663Z,0.00
2023-01-31T01:29:59.672Z,0.00
2023-01-31T01:30:59.664Z,0.00
2023-01-31T01:31:59.692Z,0.00
2023-01-31T01:32:59.624Z,0.00
2023-01-31T01:33:59.617Z,0.00
2023-01-31T01:34:59.605Z,0.00
2023-01-31T01:35:59.588Z,0.00
2023-01-31T01:36:59.587Z,0.00
2023-01-31T01:37:59.581Z,0.00
2023-01-31T01:38:59.559Z,0.00
2023-01-31T01:39:59.569Z,0.00
2023-01-31T01:40:59.548Z,0.00
2023-01-31T01:41:59.541Z,0.00
2023-01-31T01:42:59.507Z,0.00
2023-01-31T01:43:59.514Z,0.00
2023-01-31T01:44:59.518Z,0.00
2023-01-31T01:45:59.521Z,0.00
2023-01-31T01:46:59.477Z,0.00
2023-01-31T01:47:59.472Z,0.00
2023-01-31T01:48:59.462Z,0.00
2023-01-31T01:49:59.439Z,0.00
2023-01-31T01:50:59.443Z,0.00
2023-01-31T01:51:59.427Z,0.00
2023-01-31T01:52:59.400Z,0.00
2023-01-31T01:53:59.402Z,0.00
2023-01-31T01:54:59.429Z,0.00
2023-01-31T01:55:59.423Z,0.00
2023-01-31T01:56:59.390Z,0.00
2023-01-31T01:57:59.373Z,0.00
2023-01-31T01:58:59.343Z,0.00
2023-01-31T01:59:59.367Z,0.00
2023-01-31T02:00:59.342Z,0.00
2023-01-31T02:01:59.374Z,0.00
2023-01-31T02:02:59.294Z,0.00
2023-01-31T02:03:59.292Z,0.00
2023-01-31T02:04:59.289Z,0.00
2023-01-31T02:05:59.271Z,0.00
2023-01-31T02:06:59.300Z,0.00
2023-01-31T02:07:59.246Z,0.00
2023-01-31T02:08:59.237Z,0.00
2023-01-31T02:09:59.230Z,0.00
2023-01-31T02:10:59.212Z,0.00
2023-01-31T02:11:59.280Z,0.00
2023-01-31T02:12:59.188Z,0.00
2023-01-31T02:13:59.189Z,0.00
2023-01-31T02:14:59.160Z,0.00
2023-01-31T02:15:59.158Z,0.00
2023-01-31T02:16:59.142Z,0.00
2023-01-31T02:17:59.134Z,0.00
2023-01-31T02:18:59.145Z,0.00
2023-01-31T02:19:59.124Z,0.00
2023-01-31T02:20:59.098Z,0.00
2023-01-31T02:21:59.093Z,0.00
2023-01-31T02:22:59.083Z,0.00
2023-01-31T02:23:59.089Z,0.00
2023-01-31T02:24:59.074Z,0.00
2023-01-31T02:25:59.060Z,0.00
2023-01-31T02:26:59.045Z,0.00
2023-01-31T02:27:59.054Z,0.00
2023-01-31T02:28:59.034Z,0.00
2023-01-31T02:29:59.007Z,0.00
2023-01-31T02:30:59.022Z,0.00
2023-01-31T02:31:59.033Z,0.00
2023-01-31T02:32:59.002Z,0.00
2023-01-31T02:33:58.986Z,0.00
2023-01-31T02:34:58.959Z,0.00
2023-01-31T02:35:58.959Z,0.00
2023-01-31T02:36:58.952Z,0.00
2023-01-31T02:37:58.923Z,0.00
2023-01-31T02:38:59.033Z,0.00
2023-01-31T02:39:58.918Z,0.00
2023-01-31T02:40:58.890Z,0.00
2023-01-31T02:41:58.891Z,0.00
2023-01-31T02:42:58.869Z,0.00
2023-01-31T02:43:58.883Z,0.00
2023-01-31T02:45:08.075Z,0.00
2023-01-31T02:45:58.896Z,0.00
2023-01-31T02:46:58.851Z,0.00
2023-01-31T02:47:58.838Z,0.00
2023-01-31T02:48:58.798Z,0.00
2023-01-31T02:49:58.798Z,0.00
2023-01-31T02:50:58.800Z,0.00
2023-01-31T02:51:58.790Z,0.00
2023-01-31T02:52:58.753Z,0.00
2023-01-31T02:53:58.759Z,0.00
2023-01-31T02:54:58.739Z,0.00
2023-01-31T02:55:58.722Z,0.00
2023-01-31T02:56:58.716Z,0.00
2023-01-31T02:57:58.717Z,0.00
2023-01-31T02:58:58.706Z,0.00
2023-01-31T02:59:58.704Z,0.00
2023-01-31T03:00:58.750Z,0.00
2023-01-31T03:01:58.669Z,0.00
2023-01-31T03:02:58.674Z,0.00
2023-01-31T03:03:58.638Z,0.00
2023-01-31T03:04:58.634Z,0.00
2023-01-31T03:05:58.621Z,0.00
2023-01-31T03:06:58.605Z,0.00
2023-01-31T03:07:58.635Z,0.00
2023-01-31T03:08:58.599Z,0.00
2023-01-31T03:09:58.593Z,0.00
2023-01-31T03:10:58.583Z,0.00
2023-01-31T03:11:58.595Z,0.00
2023-01-31T03:12:58.555Z,0.00
2023-01-31T03:13:58.554Z,0.00
2023-01-31T03:14:58.526Z,0.00
2023-01-31T03:15:58.539Z,0.00
2023-01-31T03:16:58.581Z,0.00
2023-01-31T03:17:58.494Z,0.00
2023-01-31T03:18:58.473Z,0.00
2023-01-31T03:19:58.477Z,0.00
2023-01-31T03:20:58.454Z,0.00
2023-01-31T03:21:58.459Z,0.00
2023-01-31T03:22:58.475Z,0.00
2023-01-31T03:23:58.430Z,0.00
2023-01-31T03:24:58.432Z,0.00
2023-01-31T03:25:58.423Z,0.00
2023-01-31T03:26:58.391Z,0.00
2023-01-31T03:27:58.379Z,0.00
2023-01-31T03:28:58.394Z,0.00
2023-01-31T03:29:58.363Z,0.00
2023-01-31T03:30:58.421Z,0.00
2023-01-31T03:31:58.519Z,0.00
2023-01-31T03:32:58.331Z,0.00
2023-01-31T03:33:58.315Z,0.00
2023-01-31T03:34:58.348Z,0.00
2023-01-31T03:35:58.321Z,0.00
2023-01-31T03:36:58.279Z,0.00
2023-01-31T03:37:58.284Z,0.00
2023-01-31T03:38:58.260Z,0.00
2023-01-31T03:39:58.285Z,0.00
2023-01-31T03:40:58.256Z,0.00
2023-01-31T03:41:58.228Z,0.00
2023-01-31T03:42:58.219Z,0.00
2023-01-31T03:43:58.214Z,0.00
2023-01-31T03:44:58.201Z,0.00
2023-01-31T03:45:58.227Z,0.00
2023-01-31T03:46:58.224Z,0.00
2023-01-31T03:47:58.191Z,0.00
2023-01-31T03:48:58.154Z,0.00
2023-01-31T03:49:58.168Z,0.00
2023-01-31T03:50:58.136Z,0.00
2023-01-31T03:51:58.131Z,0.00
2023-01-31T03:52:58.111Z,0.00
2023-01-31T03:53:58.112Z,0.00
2023-01-31T03:54:58.099Z,0.00
2023-01-31T03:55:58.079Z,0.00
2023-01-31T03:56:58.069Z,0.00
2023-01-31T03:57:58.071Z,0.00
2023-01-31T03:58:58.044Z,0.00
2023-01-31T03:59:58.075Z,0.00
2023-01-31T04:00:58.035Z,0.00
2023-01-31T04:01:58.033Z,0.00
2023-01-31T04:02:58.070Z,0.00
2023-01-31T04:03:58.024Z,0.00
2023-01-31T04:04:57.993Z,0.00
2023-01-31T04:05:57.992Z,0.00
2023-01-31T04:06:57.974Z,0.00
2023-01-31T04:07:57.979Z,0.00
2023-01-31T04:08:57.936Z,0.00
2023-01-31T04:09:57.930Z,0.00
2023-01-31T04:10:57.918Z,0.00
2023-01-31T04:11:57.913Z,0.00
2023-01-31T04:12:57.915Z,0.00
2023-01-31T04:13:57.905Z,0.00
2023-01-31T04:14:57.888Z,0.00
2023-01-31T04:15:57.913Z,0.00
2023-01-31T04:16:57.873Z,0.00
2023-01-31T04:17:57.867Z,0.00
2023-01-31T04:18:57.833Z,0.00
2023-01-31T04:19:57.863Z,0.00
2023-01-31T04:20:57.846Z,0.00
2023-01-31T04:21:57.806Z,0.00
2023-01-31T04:22:57.804Z,0.00
2023-01-31T04:23:57.776Z,0.00
2023-01-31T04:24:57.793Z,0.00
2023-01-31T04:25:57.762Z,0.00
2023-01-31T04:26:57.767Z,0.00
2023-01-31T04:27:57.753Z,0.00
2023-01-31T04:28:57.728Z,0.00
2023-01-31T04:29:57.717Z,0.00
2023-01-31T04:30:57.784Z,0.00
2023-01-31T04:31:57.993Z,0.00
2023-01-31T04:32:57.753Z,0.00
2023-01-31T04:33:57.685Z,0.00
2023-01-31T04:34:57.667Z,0.00
2023-01-31T04:35:57.671Z,0.00
2023-01-31T04:36:57.672Z,0.00
2023-01-31T04:37:57.650Z,0.00
2023-01-31T04:38:57.631Z,0.00
2023-01-31T04:39:57.607Z,0.00
2023-01-31T04:40:57.597Z,0.00
2023-01-31T04:41:57.601Z,0.00
2023-01-31T04:42:57.638Z,0.00
2023-01-31T04:43:57.565Z,0.00
2023-01-31T04:44:57.561Z,0.00
2023-01-31T04:46:05.408Z,0.00
2023-01-31T04:46:57.567Z,0.00
2023-01-31T04:47:57.519Z,0.00
2023-01-31T04:48:57.515Z,0.00
2023-01-31T04:49:57.519Z,0.00
2023-01-31T04:50:57.519Z,0.00
2023-01-31T04:51:57.497Z,0.00
2023-01-31T04:52:57.489Z,0.00
2023-01-31T04:53:57.471Z,0.00
2023-01-31T04:54:57.444Z,0.00
2023-01-31T04:55:57.441Z,0.00
2023-01-31T04:56:57.433Z,0.00
2023-01-31T04:57:57.408Z,0.00
2023-01-31T04:58:57.418Z,0.00
2023-01-31T04:59:57.392Z,0.00
2023-01-31T05:00:57.432Z,0.00
2023-01-31T05:01:57.367Z,0.00
2023-01-31T05:02:57.388Z,0.00
2023-01-31T05:03:57.358Z,0.00
2023-01-31T05:04:57.351Z,0.00
2023-01-31T05:05:57.324Z,0.00
2023-01-31T05:06:57.317Z,0.00
2023-01-31T05:07:57.323Z,0.00
2023-01-31T05:08:57.604Z,0.00
2023-01-31T05:09:57.300Z,0.00
2023-01-31T05:10:57.275Z,0.00
2023-01-31T05:11:57.257Z,0.00
2023-01-31T05:12:57.275Z,0.00
2023-01-31T05:13:57.241Z,0.00
2023-01-31T05:14:57.231Z,0.00
2023-01-31T05:15:57.266Z,0.00
2023-01-31T05:16:57.211Z,0.00
2023-01-31T05:17:57.205Z,0.00
2023-01-31T05:18:57.209Z,0.00
2023-01-31T05:19:57.178Z,0.00
2023-01-31T05:20:57.166Z,0.00
2023-01-31T05:21:57.169Z,0.00
2023-01-31T05:22:57.162Z,0.00
2023-01-31T05:23:57.155Z,0.00
2023-01-31T05:24:58.540Z,0.00
2023-01-31T05:25:57.116Z,0.00
2023-01-31T05:26:57.101Z,0.00
2023-01-31T05:27:57.096Z,0.00
2023-01-31T05:28:57.080Z,0.00
2023-01-31T05:29:57.068Z,0.00
2023-01-31T05:30:57.062Z,0.00
2023-01-31T05:31:57.081Z,0.00
2023-01-31T05:32:57.074Z,0.00
2023-01-31T05:33:57.041Z,0.00
2023-01-31T05:34:57.036Z,0.00
2023-01-31T05:35:56.999Z,0.00
2023-01-31T05:36:57.004Z,0.00
2023-01-31T05:37:56.992Z,0.00
2023-01-31T05:38:56.968Z,0.00
2023-01-31T05:39:57.113Z,0.00
2023-01-31T05:40:56.961Z,0.00
2023-01-31T05:41:56.945Z,0.00
2023-01-31T05:42:56.926Z,0.00
2023-01-31T05:43:56.929Z,0.00
2023-01-31T05:44:56.928Z,0.00
2023-01-31T05:45:56.944Z,0.00
2023-01-31T05:46:56.882Z,0.00
2023-01-31T05:47:56.881Z,0.00
2023-01-31T05:48:56.876Z,0.00
2023-01-31T05:49:56.845Z,0.00
2023-01-31T05:50:56.853Z,0.00
2023-01-31T05:51:56.837Z,0.00
2023-01-31T05:52:56.834Z,0.00
2023-01-31T05:53:56.837Z,0.00
2023-01-31T05:54:56.811Z,0.00
2023-01-31T05:55:56.827Z,0.00
2023-01-31T05:56:56.795Z,0.00
2023-01-31T05:57:56.771Z,0.00
2023-01-31T05:58:56.755Z,0.00
2023-01-31T05:59:56.763Z,0.00
2023-01-31T06:00:56.784Z,0.00
2023-01-31T06:01:56.762Z,0.00
2023-01-31T06:02:56.739Z,0.00
2023-01-31T06:03:56.695Z,0.00
2023-01-31T06:04:56.689Z,0.00
2023-01-31T06:05:56.691Z,0.00
2023-01-31T06:06:56.680Z,0.00
2023-01-31T06:07:56.662Z,0.00
2023-01-31T06:08:56.658Z,0.00
2023-01-31T06:09:56.629Z,0.00
2023-01-31T06:10:56.625Z,0.00
2023-01-31T06:11:56.648Z,0.00
2023-01-31T06:12:56.616Z,0.00
2023-01-31T06:13:56.600Z,0.00
2023-01-31T06:14:56.588Z,0.00
2023-01-31T06:15:56.565Z,0.00
2023-01-31T06:16:56.576Z,0.00
2023-01-31T06:17:56.561Z,0.00
2023-01-31T06:18:56.554Z,0.00
2023-01-31T06:19:56.523Z,0.00
2023-01-31T06:20:56.532Z,0.00
2023-01-31T06:21:56.524Z,0.00
2023-01-31T06:22:56.524Z,0.00
2023-01-31T06:23:56.500Z,0.00
2023-01-31T06:24:56.775Z,0.00
2023-01-31T06:25:57.079Z,0.00
2023-01-31T06:26:56.961Z,0.00
2023-01-31T06:27:56.837Z,0.00
2023-01-31T06:28:56.738Z,0.00
2023-01-31T06:29:56.684Z,0.00
2023-01-31T06:30:56.850Z,0.00
2023-01-31T06:31:56.521Z,0.00
2023-01-31T06:32:56.504Z,0.00
2023-01-31T06:33:56.369Z,0.00
2023-01-31T06:34:56.366Z,0.00
2023-01-31T06:35:56.377Z,0.00
2023-01-31T06:36:56.358Z,0.00
2023-01-31T06:37:56.959Z,4.00
2023-01-31T06:38:56.783Z,4.00
2023-01-31T06:39:56.825Z,0.00
2023-01-31T06:40:56.762Z,0.00
2023-01-31T06:41:56.595Z,4.00
2023-01-31T06:42:56.518Z,0.00
2023-01-31T06:43:56.297Z,4.00
2023-01-31T06:44:56.419Z,4.00
2023-01-31T06:45:56.403Z,4.00
2023-01-31T06:47:03.762Z,4.00
2023-01-31T06:47:56.242Z,8.00
2023-01-31T06:48:56.217Z,8.00
2023-01-31T06:49:56.216Z,8.00
2023-01-31T06:50:56.789Z,8.00
2023-01-31T06:51:56.738Z,12.00
2023-01-31T06:52:57.152Z,12.00
2023-01-31T06:53:56.700Z,12.00
2023-01-31T06:54:56.380Z,20.00
2023-01-31T06:55:56.417Z,24.00
2023-01-31T06:56:56.335Z,28.00
2023-01-31T06:57:56.215Z,28.00
2023-01-31T06:58:56.117Z,32.00
2023-01-31T06:59:56.153Z,32.00
2023-01-31T07:00:56.096Z,36.00
2023-01-31T07:01:56.144Z,48.00
2023-01-31T07:02:56.839Z,48.00
2023-01-31T07:03:56.615Z,56.00
2023-01-31T07:04:56.720Z,56.00
2023-01-31T07:05:56.400Z,64.00
2023-01-31T07:06:56.282Z,72.00
2023-01-31T07:07:56.232Z,88.00
2023-01-31T07:08:56.192Z,112.00
2023-01-31T07:09:55.986Z,132.00
2023-01-31T07:10:56.001Z,144.00
2023-01-31T07:11:56.012Z,148.00
2023-01-31T07:12:55.995Z,156.00
2023-01-31T07:13:55.970Z,156.00
2023-01-31T07:14:55.952Z,152.00
2023-01-31T07:15:56.754Z,160.00
2023-01-31T07:16:56.419Z,160.00
2023-01-31T07:17:56.275Z,168.00
2023-01-31T07:18:56.430Z,200.00
2023-01-31T07:19:56.149Z,216.00
2023-01-31T07:20:56.279Z,208.00
2023-01-31T07:21:56.205Z,260.00
2023-01-31T07:22:56.896Z,316.00
2023-01-31T07:23:55.865Z,328.00
2023-01-31T07:24:55.827Z,316.00
2023-01-31T07:25:55.815Z,312.00
2023-01-31T07:26:56.638Z,324.00
2023-01-31T07:27:56.159Z,340.00
2023-01-31T07:28:55.789Z,376.00
2023-01-31T07:29:55.785Z,412.00
2023-01-31T07:30:55.882Z,436.00
2023-01-31T07:31:55.806Z,472.00
2023-01-31T07:32:55.746Z,496.00
2023-01-31T07:33:55.731Z,512.00
2023-01-31T07:34:55.727Z,540.00
2023-01-31T07:35:55.722Z,576.00
2023-01-31T07:36:55.761Z,592.00
2023-01-31T07:37:55.688Z,596.00
2023-01-31T07:38:55.679Z,604.00
2023-01-31T07:39:55.667Z,612.00
2023-01-31T07:40:55.687Z,632.00
2023-01-31T07:41:55.651Z,652.00
2023-01-31T07:42:55.639Z,696.00
2023-01-31T07:43:55.629Z,752.00
2023-01-31T07:44:55.616Z,840.00
2023-01-31T07:45:55.667Z,936.00
2023-01-31T07:46:55.651Z,1040.00
2023-01-31T07:47:56.088Z,1164.00
2023-01-31T07:48:55.576Z,1312.00
2023-01-31T07:49:55.573Z,1424.00
2023-01-31T07:50:55.556Z,1484.00
2023-01-31T07:51:55.585Z,1564.00
2023-01-31T07:52:55.529Z,1628.00
2023-01-31T07:53:55.544Z,1624.00
2023-01-31T07:54:55.527Z,1592.00
2023-01-31T07:55:55.506Z,1572.00
2023-01-31T07:56:55.507Z,1592.00
2023-01-31T07:57:55.516Z,1568.00
2023-01-31T07:58:55.526Z,1532.00
2023-01-31T07:59:55.475Z,1520.00
2023-01-31T08:00:55.577Z,1532.00
2023-01-31T08:01:55.436Z,1508.00
2023-01-31T08:02:55.501Z,1500.00
2023-01-31T08:03:55.567Z,1540.00
2023-01-31T08:04:55.464Z,1628.00
2023-01-31T08:05:55.391Z,1728.00
2023-01-31T08:06:55.460Z,1784.00
2023-01-31T08:07:55.402Z,1876.00
2023-01-31T08:08:55.465Z,2040.00
2023-01-31T08:09:55.356Z,2244.00
2023-01-31T08:10:55.353Z,2400.00
2023-01-31T08:11:55.315Z,2516.00
2023-01-31T08:12:55.344Z,2712.00
2023-01-31T08:13:55.323Z,2844.00
2023-01-31T08:14:55.354Z,2924.00
2023-01-31T08:15:55.291Z,2900.00
2023-01-31T08:16:55.406Z,2780.00
2023-01-31T08:17:55.266Z,2600.00
2023-01-31T08:18:55.248Z,2476.00
2023-01-31T08:19:55.265Z,2644.00
2023-01-31T08:20:55.237Z,2736.00
2023-01-31T08:21:56.153Z,2808.00
2023-01-31T08:22:55.226Z,2984.00
2023-01-31T08:23:55.195Z,3000.00
2023-01-31T08:24:55.239Z,2956.00
2023-01-31T08:25:55.222Z,2768.00
2023-01-31T08:26:55.231Z,2632.00
2023-01-31T08:27:55.199Z,2636.00
2023-01-31T08:28:55.136Z,2616.00
2023-01-31T08:29:55.127Z,2592.00
2023-01-31T08:31:07.858Z,2480.00
2023-01-31T08:31:55.322Z,2200.00
2023-01-31T08:32:55.146Z,1980.00
2023-01-31T08:33:55.088Z,1860.00
2023-01-31T08:34:55.100Z,2240.00
2023-01-31T08:35:55.087Z,1384.00
2023-01-31T08:36:55.232Z,1204.00
2023-01-31T08:38:03.747Z,1048.00
2023-01-31T08:38:56.115Z,924.00
2023-01-31T08:39:55.045Z,860.00
2023-01-31T08:40:55.135Z,840.00
2023-01-31T08:41:54.997Z,832.00
2023-01-31T08:42:55.012Z,860.00
2023-01-31T08:43:57.461Z,928.00
2023-01-31T08:44:54.973Z,984.00
2023-01-31T08:45:54.999Z,1024.00
2023-01-31T08:46:54.984Z,1044.00
2023-01-31T08:48:05.678Z,1044.00
2023-01-31T08:48:54.910Z,1024.00
2023-01-31T08:49:54.929Z,1000.00
2023-01-31T08:50:54.945Z,1104.00
2023-01-31T08:51:54.930Z,1292.00
2023-01-31T08:52:54.877Z,1428.00
2023-01-31T08:53:54.856Z,1444.00
2023-01-31T08:54:54.855Z,1492.00
2023-01-31T08:55:54.834Z,1560.00
2023-01-31T08:56:54.840Z,1700.00
2023-01-31T08:57:59.780Z,1652.00
2023-01-31T08:58:55.825Z,1484.00
2023-01-31T08:59:54.806Z,1344.00
2023-01-31T09:00:54.801Z,1276.00
2023-01-31T09:01:54.862Z,1300.00
2023-01-31T09:02:54.806Z,1360.00
2023-01-31T09:03:54.789Z,1252.00
2023-01-31T09:04:54.758Z,1208.00
2023-01-31T09:05:54.728Z,1152.00
2023-01-31T09:06:54.732Z,1124.00
2023-01-31T09:07:54.737Z,1160.00
2023-01-31T09:08:55.313Z,1168.00
2023-01-31T09:09:54.692Z,1132.00
2023-01-31T09:10:54.688Z,1068.00
2023-01-31T09:11:54.667Z,1120.00
2023-01-31T09:12:54.856Z,1104.00
2023-01-31T09:13:54.665Z,1004.00
2023-01-31T09:14:54.649Z,1028.00
2023-01-31T09:15:54.642Z,1112.00
2023-01-31T09:16:54.630Z,1076.00
2023-01-31T09:17:54.604Z,924.00
2023-01-31T09:18:55.132Z,844.00
2023-01-31T09:19:54.611Z,912.00
2023-01-31T09:20:54.565Z,976.00
2023-01-31T09:21:54.573Z,1156.00
2023-01-31T09:22:54.573Z,1400.00
2023-01-31T09:23:54.592Z,1332.00
2023-01-31T09:24:54.526Z,1340.00
2023-01-31T09:25:54.528Z,1496.00
2023-01-31T09:26:54.560Z,1600.00
2023-01-31T09:27:54.563Z,1588.00
2023-01-31T09:28:54.489Z,1524.00
2023-01-31T09:29:54.467Z,1588.00
2023-01-31T09:30:54.537Z,1568.00
2023-01-31T09:31:54.576Z,1588.00
2023-01-31T09:32:54.436Z,1584.00
2023-01-31T09:33:54.497Z,1532.00
2023-01-31T09:34:54.497Z,1536.00
2023-01-31T09:35:54.411Z,1564.00
2023-01-31T09:36:54.476Z,1728.00
2023-01-31T09:37:54.413Z,1724.00
2023-01-31T09:38:54.390Z,1716.00
2023-01-31T09:39:54.410Z,1368.00
2023-01-31T09:40:54.509Z,1320.00
2023-01-31T09:41:54.398Z,1500.00
2023-01-31T09:42:54.354Z,1700.00
2023-01-31T09:43:54.336Z,1964.00
2023-01-31T09:44:54.300Z,2112.00
2023-01-31T09:45:54.298Z,2184.00
2023-01-31T09:46:54.368Z,2096.00
2023-01-31T09:47:54.293Z,1768.00
2023-01-31T09:48:54.298Z,1592.00
2023-01-31T09:49:54.346Z,1428.00
2023-01-31T09:50:54.281Z,1368.00
2023-01-31T09:51:54.221Z,1564.00
2023-01-31T09:52:54.280Z,1880.00
2023-01-31T09:53:54.276Z,2036.00
2023-01-31T09:54:54.384Z,2028.00
2023-01-31T09:55:54.287Z,1912.00
2023-01-31T09:56:54.172Z,1856.00
2023-01-31T09:57:54.254Z,1716.00
2023-01-31T09:58:54.145Z,1532.00
2023-01-31T09:59:54.139Z,1476.00
2023-01-31T10:00:54.223Z,1588.00
2023-01-31T10:01:54.188Z,1532.00
2023-01-31T10:02:54.129Z,1520.00
2023-01-31T10:03:54.196Z,1564.00
2023-01-31T10:04:54.188Z,1352.00
2023-01-31T10:05:54.095Z,1416.00
2023-01-31T10:06:54.118Z,1440.00
2023-01-31T10:07:54.060Z,1660.00
2023-01-31T10:08:54.089Z,1872.00
2023-01-31T10:09:54.092Z,1832.00
2023-01-31T10:10:54.052Z,1844.00
2023-01-31T10:11:54.202Z,1708.00
2023-01-31T10:12:54.014Z,1532.00
2023-01-31T10:13:54.076Z,1684.00
2023-01-31T10:14:54.036Z,1604.00
2023-01-31T10:15:54.099Z,1404.00
2023-01-31T10:16:54.124Z,1368.00
2023-01-31T10:17:54.753Z,1320.00
2023-01-31T10:18:54.988Z,1280.00
2023-01-31T10:19:53.969Z,1288.00
2023-01-31T10:20:54.759Z,1180.00
2023-01-31T10:21:53.936Z,1348.00
2023-01-31T10:22:53.897Z,1408.00
2023-01-31T10:23:53.925Z,1452.00
2023-01-31T10:24:53.894Z,1372.00
2023-01-31T10:25:53.857Z,1232.00
2023-01-31T10:26:53.876Z,1308.00
2023-01-31T10:27:53.924Z,1368.00
2023-01-31T10:28:54.731Z,1284.00
2023-01-31T10:29:53.852Z,1444.00
2023-01-31T10:30:53.835Z,1288.00
2023-01-31T10:31:53.917Z,1388.00
2023-01-31T10:32:53.782Z,1612.00
2023-01-31T10:33:53.772Z,1816.00
2023-01-31T10:34:53.851Z,1660.00
2023-01-31T10:35:53.806Z,1796.00
2023-01-31T10:36:53.737Z,1832.00
2023-01-31T10:37:53.741Z,1640.00
2023-01-31T10:38:53.735Z,1500.00
2023-01-31T10:39:53.832Z,1308.00
2023-01-31T10:40:53.821Z,1372.00
2023-01-31T10:41:54.705Z,1576.00
2023-01-31T10:42:53.799Z,1652.00
2023-01-31T10:43:53.702Z,1664.00
2023-01-31T10:44:53.801Z,1608.00
2023-01-31T10:45:53.672Z,1708.00
2023-01-31T10:46:53.660Z,1688.00
2023-01-31T10:47:54.168Z,1768.00
2023-01-31T10:49:01.439Z,1792.00
2023-01-31T10:49:53.602Z,1704.00
2023-01-31T10:50:53.613Z,1520.00
2023-01-31T10:51:53.581Z,1656.00
2023-01-31T10:52:53.594Z,1684.00
2023-01-31T10:53:53.554Z,1668.00
2023-01-31T10:54:53.555Z,1780.00
2023-01-31T10:55:53.522Z,1696.00
2023-01-31T10:56:53.528Z,1920.00
2023-01-31T10:57:53.518Z,2140.00
2023-01-31T10:58:53.736Z,2248.00
2023-01-31T10:59:53.516Z,2952.00
2023-01-31T11:00:53.508Z,3316.00
2023-01-31T11:01:53.512Z,3436.00
2023-01-31T11:02:53.441Z,3536.00
2023-01-31T11:03:53.449Z,3412.00
2023-01-31T11:04:53.644Z,2616.00
2023-01-31T11:05:53.456Z,2260.00
2023-01-31T11:06:53.429Z,2164.00
2023-01-31T11:07:53.433Z,2060.00
2023-01-31T11:08:53.397Z,1960.00
2023-01-31T11:09:53.383Z,1924.00
2023-01-31T11:10:53.368Z,2140.00
2023-01-31T11:11:53.369Z,2276.00
2023-01-31T11:12:53.347Z,2496.00
2023-01-31T11:13:53.331Z,2804.00
2023-01-31T11:14:54.057Z,2932.00
2023-01-31T11:15:53.327Z,3056.00
2023-01-31T11:16:53.371Z,3276.00
2023-01-31T11:17:53.295Z,2732.00
2023-01-31T11:18:53.288Z,2500.00
2023-01-31T11:19:53.382Z,2368.00
2023-01-31T11:20:53.249Z,2060.00
2023-01-31T11:21:53.254Z,1676.00
2023-01-31T11:22:53.231Z,1500.00
2023-01-31T11:23:53.219Z,1632.00
2023-01-31T11:24:53.217Z,1992.00
2023-01-31T11:25:53.220Z,2144.00
2023-01-31T11:26:53.207Z,2292.00
2023-01-31T11:27:53.202Z,2188.00
2023-01-31T11:28:53.173Z,1880.00
2023-01-31T11:29:53.169Z,1788.00
2023-01-31T11:30:53.239Z,2232.00
2023-01-31T11:31:53.230Z,2528.00
2023-01-31T11:32:53.126Z,2680.00
2023-01-31T11:33:53.127Z,2836.00
2023-01-31T11:34:53.132Z,2932.00
2023-01-31T11:35:53.129Z,2924.00
2023-01-31T11:36:53.075Z,2476.00
2023-01-31T11:37:54.344Z,2096.00
2023-01-31T11:38:53.089Z,1976.00
2023-01-31T11:39:53.057Z,1920.00
2023-01-31T11:40:53.054Z,1704.00
2023-01-31T11:41:53.095Z,1736.00
2023-01-31T11:42:53.073Z,1820.00
2023-01-31T11:43:53.025Z,1920.00
2023-01-31T11:44:53.018Z,2488.00
2023-01-31T11:45:53.028Z,2352.00
2023-01-31T11:46:53.167Z,2308.00
2023-01-31T11:47:53.030Z,2200.00
2023-01-31T11:48:53.860Z,2240.00
2023-01-31T11:49:52.970Z,1948.00
2023-01-31T11:50:52.946Z,1732.00
2023-01-31T11:51:52.933Z,1460.00
2023-01-31T11:52:52.934Z,1252.00
2023-01-31T11:53:52.906Z,1064.00
2023-01-31T11:54:52.890Z,916.00
2023-01-31T11:55:52.897Z,772.00
2023-01-31T11:56:55.602Z,716.00
2023-01-31T11:57:52.858Z,684.00
2023-01-31T11:58:52.845Z,676.00
2023-01-31T11:59:52.828Z,628.00
2023-01-31T12:00:52.828Z,664.00
2023-01-31T12:01:52.856Z,724.00
2023-01-31T12:02:52.793Z,856.00
2023-01-31T12:04:02.518Z,860.00
2023-01-31T12:04:53.787Z,956.00
2023-01-31T12:05:52.784Z,900.00
2023-01-31T12:06:52.773Z,848.00
2023-01-31T12:07:52.748Z,784.00
2023-01-31T12:08:52.776Z,828.00
2023-01-31T12:09:52.765Z,912.00
2023-01-31T12:10:52.777Z,1048.00
2023-01-31T12:11:52.710Z,1072.00
2023-01-31T12:12:52.700Z,1040.00
2023-01-31T12:13:52.743Z,1084.00
2023-01-31T12:14:53.361Z,1152.00
2023-01-31T12:15:53.020Z,1252.00
2023-01-31T12:16:53.475Z,1284.00
2023-01-31T12:17:52.799Z,1152.00
2023-01-31T12:18:53.095Z,984.00
2023-01-31T12:19:52.785Z,1008.00
2023-01-31T12:20:52.697Z,968.00
2023-01-31T12:21:52.626Z,936.00
2023-01-31T12:22:52.589Z,984.00
2023-01-31T12:23:52.572Z,1132.00
2023-01-31T12:24:52.601Z,1192.00
2023-01-31T12:25:52.558Z,1120.00
2023-01-31T12:26:52.617Z,948.00
2023-01-31T12:27:52.545Z,864.00
2023-01-31T12:28:52.529Z,876.00
2023-01-31T12:29:52.556Z,904.00
2023-01-31T12:30:52.600Z,908.00
2023-01-31T12:31:52.553Z,944.00
2023-01-31T12:32:52.490Z,1044.00
2023-01-31T12:33:52.477Z,1120.00
2023-01-31T12:35:00.684Z,1256.00
2023-01-31T12:35:53.469Z,1160.00
2023-01-31T12:36:52.429Z,1120.00
2023-01-31T12:37:52.436Z,1048.00
2023-01-31T12:38:52.444Z,956.00
2023-01-31T12:39:52.408Z,936.00
2023-01-31T12:40:52.395Z,956.00
2023-01-31T12:41:52.380Z,1084.00
2023-01-31T12:42:52.405Z,1136.00
2023-01-31T12:43:52.532Z,1232.00
2023-01-31T12:44:52.344Z,1440.00
2023-01-31T12:45:52.381Z,1132.00